createdAt,value
2017-12-29T00:00:39.967Z,4.00
2017-12-29T00:01:39.984Z,4.00
2017-12-29T00:02:39.989Z,4.00
2017-12-29T00:03:40.001Z,4.00
2017-12-29T00:04:40.012Z,4.00
2017-12-29T00:05:40.029Z,4.00
2017-12-29T00:06:40.035Z,4.00
2017-12-29T00:07:40.047Z,4.00
2017-12-29T00:08:40.057Z,4.00
2017-12-29T00:09:40.077Z,4.00
2017-12-29T00:10:40.099Z,4.00
2017-12-29T00:11:40.109Z,4.00
2017-12-29T00:12:40.101Z,4.00
2017-12-29T00:13:40.124Z,4.00
2017-12-29T00:14:40.133Z,4.00
2017-12-29T00:15:40.137Z,4.00
2017-12-29T00:16:40.145Z,4.00
2017-12-29T00:17:40.159Z,4.00
2017-12-29T00:18:40.168Z,4.00
2017-12-29T00:19:40.181Z,4.00
2017-12-29T00:20:40.193Z,4.00
2017-12-29T00:21:40.200Z,4.00
2017-12-29T00:22:40.210Z,4.00
2017-12-29T00:23:40.222Z,4.00
2017-12-29T00:24:40.235Z,4.00
2017-12-29T00:25:40.245Z,4.00
2017-12-29T00:26:40.260Z,4.00
2017-12-29T00:27:40.269Z,4.00
2017-12-29T00:28:40.277Z,4.00
2017-12-29T00:29:40.288Z,4.00
2017-12-29T00:30:40.304Z,4.00
2017-12-29T00:31:40.311Z,4.00
2017-12-29T00:32:40.323Z,4.00
2017-12-29T00:33:40.331Z,4.00
2017-12-29T00:34:40.343Z,4.00
2017-12-29T00:35:40.356Z,4.00
2017-12-29T00:36:40.366Z,4.00
2017-12-29T00:37:40.375Z,4.00
2017-12-29T00:38:40.387Z,4.00
2017-12-29T00:39:40.402Z,4.00
2017-12-29T00:40:40.413Z,4.00
2017-12-29T00:41:40.419Z,4.00
2017-12-29T00:42:40.435Z,4.00
2017-12-29T00:43:40.446Z,4.00
2017-12-29T00:44:40.453Z,4.00
2017-12-29T00:45:40.464Z,4.00
2017-12-29T00:46:40.478Z,4.00
2017-12-29T00:47:40.488Z,4.00
2017-12-29T00:48:40.499Z,4.00
2017-12-29T00:49:40.510Z,4.00
2017-12-29T00:50:40.520Z,4.00
2017-12-29T00:51:40.530Z,4.00
2017-12-29T00:52:40.542Z,4.00
2017-12-29T00:53:40.551Z,4.00
2017-12-29T00:54:40.565Z,4.00
2017-12-29T00:55:40.580Z,4.00
2017-12-29T00:56:40.608Z,4.00
2017-12-29T00:57:40.598Z,4.00
2017-12-29T00:58:40.608Z,4.00
2017-12-29T00:59:40.619Z,4.00
2017-12-29T01:00:40.630Z,4.00
2017-12-29T01:01:40.640Z,4.00
2017-12-29T01:02:40.656Z,4.00
2017-12-29T01:03:40.657Z,4.00
2017-12-29T01:04:40.667Z,4.00
2017-12-29T01:05:40.678Z,4.00
2017-12-29T01:06:40.688Z,4.00
2017-12-29T01:07:40.703Z,4.00
2017-12-29T01:08:40.712Z,4.00
2017-12-29T01:09:40.729Z,4.00
2017-12-29T01:10:40.734Z,4.00
2017-12-29T01:11:40.744Z,4.00
2017-12-29T01:12:40.757Z,4.00
2017-12-29T01:13:40.768Z,4.00
2017-12-29T01:14:40.778Z,4.00
2017-12-29T01:15:40.790Z,4.00
2017-12-29T01:16:40.800Z,4.00
2017-12-29T01:17:40.814Z,4.00
2017-12-29T01:18:40.824Z,4.00
2017-12-29T01:19:40.834Z,4.00
2017-12-29T01:20:40.848Z,4.00
2017-12-29T01:21:40.856Z,4.00
2017-12-29T01:22:40.872Z,4.00
2017-12-29T01:23:40.878Z,4.00
2017-12-29T01:24:40.891Z,4.00
2017-12-29T01:25:40.901Z,4.00
2017-12-29T01:26:40.911Z,4.00
2017-12-29T01:27:40.922Z,4.00
2017-12-29T01:28:40.937Z,4.00
2017-12-29T01:29:40.943Z,4.00
2017-12-29T01:30:40.955Z,4.00
2017-12-29T01:31:40.966Z,4.00
2017-12-29T01:32:40.981Z,4.00
2017-12-29T01:33:40.987Z,4.00
2017-12-29T01:34:41.000Z,4.00
2017-12-29T01:35:41.011Z,4.00
2017-12-29T01:36:41.021Z,4.00
2017-12-29T01:37:41.034Z,4.00
2017-12-29T01:38:41.046Z,4.00
2017-12-29T01:39:41.054Z,4.00
2017-12-29T01:40:41.066Z,4.00
2017-12-29T01:41:41.076Z,4.00
2017-12-29T01:42:41.085Z,4.00
2017-12-29T01:43:41.098Z,4.00
2017-12-29T01:44:41.109Z,4.00
2017-12-29T01:45:41.119Z,4.00
2017-12-29T01:46:41.130Z,4.00
2017-12-29T01:47:41.147Z,4.00
2017-12-29T01:48:41.158Z,4.00
2017-12-29T01:49:41.162Z,4.00
2017-12-29T01:50:41.179Z,4.00
2017-12-29T01:51:41.186Z,4.00
2017-12-29T01:52:41.196Z,4.00
2017-12-29T01:53:41.211Z,4.00
2017-12-29T01:54:41.219Z,4.00
2017-12-29T01:55:41.228Z,4.00
2017-12-29T01:56:41.240Z,4.00
2017-12-29T01:57:41.251Z,4.00
2017-12-29T01:58:41.267Z,4.00
2017-12-29T01:59:41.272Z,4.00
2017-12-29T02:00:41.282Z,4.00
2017-12-29T02:01:41.295Z,4.00
2017-12-29T02:02:41.305Z,4.00
2017-12-29T02:03:41.314Z,4.00
2017-12-29T02:04:41.340Z,4.00
2017-12-29T02:05:41.340Z,4.00
2017-12-29T02:06:41.352Z,4.00
2017-12-29T02:07:41.360Z,4.00
2017-12-29T02:08:41.369Z,4.00
2017-12-29T02:09:41.378Z,4.00
2017-12-29T02:10:41.393Z,4.00
2017-12-29T02:11:41.401Z,4.00
2017-12-29T02:12:41.415Z,4.00
2017-12-29T02:13:41.423Z,4.00
2017-12-29T02:14:41.437Z,4.00
2017-12-29T02:15:41.446Z,4.00
2017-12-29T02:16:41.453Z,4.00
2017-12-29T02:17:41.463Z,4.00
2017-12-29T02:18:41.474Z,4.00
2017-12-29T02:19:41.487Z,4.00
2017-12-29T02:20:41.510Z,4.00
2017-12-29T02:21:41.507Z,4.00
2017-12-29T02:22:41.518Z,4.00
2017-12-29T02:23:41.530Z,4.00
2017-12-29T02:24:41.542Z,4.00
2017-12-29T02:25:41.550Z,4.00
2017-12-29T02:26:41.561Z,4.00
2017-12-29T02:27:41.572Z,4.00
2017-12-29T02:28:41.583Z,4.00
2017-12-29T02:29:41.592Z,4.00
2017-12-29T02:30:41.602Z,4.00
2017-12-29T02:31:41.614Z,4.00
2017-12-29T02:32:41.625Z,4.00
2017-12-29T02:33:41.639Z,4.00
2017-12-29T02:34:41.645Z,4.00
2017-12-29T02:35:41.657Z,4.00
2017-12-29T02:36:41.666Z,4.00
2017-12-29T02:37:41.676Z,4.00
2017-12-29T02:38:41.688Z,4.00
2017-12-29T02:39:41.696Z,4.00
2017-12-29T02:40:41.708Z,4.00
2017-12-29T02:41:41.718Z,4.00
2017-12-29T02:42:41.728Z,4.00
2017-12-29T02:43:41.738Z,4.00
2017-12-29T02:44:41.749Z,4.00
2017-12-29T02:45:41.765Z,4.00
2017-12-29T02:46:41.770Z,4.00
2017-12-29T02:47:41.781Z,4.00
2017-12-29T02:48:41.792Z,4.00
2017-12-29T02:49:41.803Z,4.00
2017-12-29T02:50:41.813Z,4.00
2017-12-29T02:51:41.823Z,4.00
2017-12-29T02:52:41.833Z,4.00
2017-12-29T02:53:41.845Z,4.00
2017-12-29T02:54:41.862Z,4.00
2017-12-29T02:55:41.866Z,4.00
2017-12-29T02:56:41.875Z,4.00
2017-12-29T02:57:41.884Z,4.00
2017-12-29T02:58:41.894Z,4.00
2017-12-29T02:59:41.905Z,4.00
2017-12-29T03:00:41.916Z,4.00
2017-12-29T03:01:41.928Z,4.00
2017-12-29T03:02:41.938Z,4.00
2017-12-29T03:03:41.947Z,4.00
2017-12-29T03:04:41.958Z,4.00
2017-12-29T03:05:41.969Z,4.00
2017-12-29T03:06:41.978Z,4.00
2017-12-29T03:07:41.988Z,4.00
2017-12-29T03:08:41.999Z,4.00
2017-12-29T03:09:42.009Z,4.00
2017-12-29T03:10:42.020Z,4.00
2017-12-29T03:11:42.031Z,4.00
2017-12-29T03:12:42.040Z,4.00
2017-12-29T03:13:42.050Z,4.00
2017-12-29T03:14:42.063Z,4.00
2017-12-29T03:15:42.072Z,4.00
2017-12-29T03:16:42.082Z,4.00
2017-12-29T03:17:42.091Z,4.00
2017-12-29T03:18:42.104Z,0.00
2017-12-29T03:19:42.112Z,4.00
2017-12-29T03:20:42.124Z,4.00
2017-12-29T03:21:42.131Z,0.00
2017-12-29T03:22:42.142Z,0.00
2017-12-29T03:23:42.153Z,4.00
2017-12-29T03:24:42.163Z,4.00
2017-12-29T03:25:42.176Z,4.00
2017-12-29T03:26:42.185Z,4.00
2017-12-29T03:27:42.196Z,4.00
2017-12-29T03:28:42.205Z,4.00
2017-12-29T03:29:42.221Z,0.00
2017-12-29T03:30:42.226Z,4.00
2017-12-29T03:31:42.236Z,4.00
2017-12-29T03:32:42.246Z,4.00
2017-12-29T03:33:42.256Z,4.00
2017-12-29T03:34:42.268Z,0.00
2017-12-29T03:35:42.280Z,4.00
2017-12-29T03:36:42.289Z,4.00
2017-12-29T03:37:42.301Z,4.00
2017-12-29T03:38:42.313Z,4.00
2017-12-29T03:39:42.318Z,0.00
2017-12-29T03:40:42.329Z,0.00
2017-12-29T03:41:42.339Z,4.00
2017-12-29T03:42:42.348Z,4.00
2017-12-29T03:43:42.360Z,4.00
2017-12-29T03:44:42.369Z,4.00
2017-12-29T03:45:42.382Z,4.00
2017-12-29T03:46:42.389Z,4.00
2017-12-29T03:47:42.401Z,4.00
2017-12-29T03:48:42.410Z,0.00
2017-12-29T03:49:42.420Z,4.00
2017-12-29T03:50:42.431Z,4.00
2017-12-29T03:51:42.441Z,4.00
2017-12-29T03:52:42.452Z,4.00
2017-12-29T03:53:42.462Z,4.00
2017-12-29T03:54:42.471Z,0.00
2017-12-29T03:55:42.483Z,4.00
2017-12-29T03:56:42.494Z,4.00
2017-12-29T03:57:42.502Z,4.00
2017-12-29T03:58:42.512Z,4.00
2017-12-29T03:59:42.524Z,4.00
2017-12-29T04:00:42.541Z,4.00
2017-12-29T04:01:42.544Z,4.00
2017-12-29T04:02:42.554Z,4.00
2017-12-29T04:03:42.566Z,4.00
2017-12-29T04:04:42.576Z,4.00
2017-12-29T04:05:42.584Z,4.00
2017-12-29T04:06:42.594Z,4.00
2017-12-29T04:07:42.611Z,4.00
2017-12-29T04:08:42.614Z,4.00
2017-12-29T04:09:42.625Z,4.00
2017-12-29T04:10:42.640Z,4.00
2017-12-29T04:11:42.647Z,4.00
2017-12-29T04:12:42.656Z,4.00
2017-12-29T04:13:42.668Z,4.00
2017-12-29T04:14:42.691Z,4.00
2017-12-29T04:15:42.686Z,0.00
2017-12-29T04:16:42.697Z,0.00
2017-12-29T04:17:42.709Z,0.00
2017-12-29T04:18:42.716Z,0.00
2017-12-29T04:19:42.727Z,4.00
2017-12-29T04:20:42.739Z,4.00
2017-12-29T04:21:42.748Z,0.00
2017-12-29T04:22:42.758Z,4.00
2017-12-29T04:23:42.769Z,4.00
2017-12-29T04:24:42.779Z,4.00
2017-12-29T04:25:42.790Z,4.00
2017-12-29T04:26:42.803Z,0.00
2017-12-29T04:27:42.810Z,4.00
2017-12-29T04:28:42.821Z,0.00
2017-12-29T04:29:42.835Z,4.00
2017-12-29T04:30:42.842Z,4.00
2017-12-29T04:31:42.852Z,4.00
2017-12-29T04:32:42.861Z,4.00
2017-12-29T04:33:42.872Z,4.00
2017-12-29T04:34:42.882Z,4.00
2017-12-29T04:35:42.892Z,4.00
2017-12-29T04:36:42.902Z,4.00
2017-12-29T04:37:42.912Z,4.00
2017-12-29T04:38:42.922Z,4.00
2017-12-29T04:39:42.934Z,4.00
2017-12-29T04:40:42.944Z,4.00
2017-12-29T04:41:42.953Z,4.00
2017-12-29T04:42:42.974Z,0.00
2017-12-29T04:43:42.976Z,0.00
2017-12-29T04:44:42.985Z,4.00
2017-12-29T04:45:42.994Z,4.00
2017-12-29T04:46:43.104Z,4.00
2017-12-29T04:47:43.016Z,4.00
2017-12-29T04:48:43.026Z,4.00
2017-12-29T04:49:43.036Z,4.00
2017-12-29T04:50:43.047Z,4.00
2017-12-29T04:51:43.057Z,4.00
2017-12-29T04:52:43.066Z,4.00
2017-12-29T04:53:43.079Z,4.00
2017-12-29T04:54:43.088Z,4.00
2017-12-29T04:55:43.102Z,4.00
2017-12-29T04:56:43.112Z,4.00
2017-12-29T04:57:43.122Z,4.00
2017-12-29T04:58:43.130Z,4.00
2017-12-29T04:59:43.138Z,4.00
2017-12-29T05:00:43.148Z,4.00
2017-12-29T05:01:43.159Z,4.00
2017-12-29T05:02:43.171Z,4.00
2017-12-29T05:03:43.180Z,4.00
2017-12-29T05:04:43.191Z,4.00
2017-12-29T05:05:43.199Z,4.00
2017-12-29T05:06:43.210Z,4.00
2017-12-29T05:07:43.223Z,4.00
2017-12-29T05:08:43.232Z,4.00
2017-12-29T05:09:43.242Z,4.00
2017-12-29T05:10:43.252Z,4.00
2017-12-29T05:11:43.276Z,4.00
2017-12-29T05:12:43.273Z,4.00
2017-12-29T05:13:43.281Z,4.00
2017-12-29T05:14:43.291Z,4.00
2017-12-29T05:15:43.304Z,4.00
2017-12-29T05:16:43.316Z,4.00
2017-12-29T05:17:43.528Z,4.00
2017-12-29T05:18:43.335Z,4.00
2017-12-29T05:19:43.346Z,4.00
2017-12-29T05:20:43.355Z,4.00
2017-12-29T05:21:43.367Z,4.00
2017-12-29T05:22:43.377Z,4.00
2017-12-29T05:23:43.387Z,4.00
2017-12-29T05:24:43.398Z,4.00
2017-12-29T05:25:43.407Z,4.00
2017-12-29T05:26:43.425Z,4.00
2017-12-29T05:27:43.427Z,4.00
2017-12-29T05:28:43.441Z,4.00
2017-12-29T05:29:43.449Z,4.00
2017-12-29T05:30:43.457Z,4.00
2017-12-29T05:31:43.467Z,4.00
2017-12-29T05:32:43.477Z,4.00
2017-12-29T05:33:43.487Z,4.00
2017-12-29T05:34:43.500Z,4.00
2017-12-29T05:35:43.507Z,4.00
2017-12-29T05:36:43.525Z,4.00
2017-12-29T05:37:43.628Z,4.00
2017-12-29T05:38:43.538Z,4.00
2017-12-29T05:39:43.547Z,4.00
2017-12-29T05:40:43.559Z,4.00
2017-12-29T05:41:43.569Z,4.00
2017-12-29T05:42:43.580Z,4.00
2017-12-29T05:43:43.592Z,4.00
2017-12-29T05:44:43.598Z,4.00
2017-12-29T05:45:43.610Z,4.00
2017-12-29T05:46:43.619Z,4.00
2017-12-29T05:47:43.644Z,4.00
2017-12-29T05:48:43.640Z,4.00
2017-12-29T05:49:43.648Z,4.00
2017-12-29T05:50:43.660Z,4.00
2017-12-29T05:51:43.672Z,4.00
2017-12-29T05:52:43.681Z,4.00
2017-12-29T05:53:43.690Z,4.00
2017-12-29T05:54:43.698Z,4.00
2017-12-29T05:55:43.710Z,4.00
2017-12-29T05:56:43.719Z,4.00
2017-12-29T05:57:43.730Z,4.00
2017-12-29T05:58:43.746Z,4.00
2017-12-29T05:59:43.751Z,4.00
2017-12-29T06:00:43.760Z,4.00
2017-12-29T06:01:43.770Z,4.00
2017-12-29T06:02:43.780Z,4.00
2017-12-29T06:03:43.789Z,4.00
2017-12-29T06:04:43.798Z,4.00
2017-12-29T06:05:43.813Z,4.00
2017-12-29T06:06:43.820Z,4.00
2017-12-29T06:07:43.831Z,4.00
2017-12-29T06:08:43.840Z,4.00
2017-12-29T06:09:43.849Z,4.00
2017-12-29T06:10:43.861Z,4.00
2017-12-29T06:11:43.917Z,4.00
2017-12-29T06:12:43.887Z,4.00
2017-12-29T06:13:43.889Z,4.00
2017-12-29T06:14:43.912Z,4.00
2017-12-29T06:15:43.909Z,4.00
2017-12-29T06:16:43.920Z,4.00
2017-12-29T06:17:43.934Z,4.00
2017-12-29T06:18:43.940Z,4.00
2017-12-29T06:19:43.968Z,4.00
2017-12-29T06:20:43.962Z,4.00
2017-12-29T06:21:43.971Z,4.00
2017-12-29T06:22:43.984Z,4.00
2017-12-29T06:23:43.989Z,4.00
2017-12-29T06:24:44.001Z,4.00
2017-12-29T06:25:44.015Z,4.00
2017-12-29T06:26:44.019Z,4.00
2017-12-29T06:28:44.040Z,4.00
2017-12-29T06:29:44.049Z,4.00
2017-12-29T06:30:44.059Z,4.00
2017-12-29T06:31:44.071Z,4.00
2017-12-29T06:32:44.581Z,4.00
2017-12-29T06:33:44.092Z,4.00
2017-12-29T06:34:44.100Z,4.00
2017-12-29T06:35:44.111Z,4.00
2017-12-29T06:36:44.120Z,4.00
2017-12-29T06:37:44.133Z,4.00
2017-12-29T06:38:44.141Z,4.00
2017-12-29T06:39:44.162Z,4.00
2017-12-29T06:40:44.159Z,4.00
2017-12-29T06:41:44.183Z,4.00
2017-12-29T06:42:44.180Z,4.00
2017-12-29T06:43:44.195Z,4.00
2017-12-29T06:44:44.203Z,4.00
2017-12-29T06:45:44.211Z,4.00
2017-12-29T06:46:44.222Z,4.00
2017-12-29T06:47:44.232Z,4.00
2017-12-29T06:48:44.239Z,4.00
2017-12-29T06:49:44.249Z,4.00
2017-12-29T06:50:44.259Z,4.00
2017-12-29T06:51:44.275Z,4.00
2017-12-29T06:52:44.278Z,4.00
2017-12-29T06:53:44.308Z,4.00
2017-12-29T06:54:44.306Z,4.00
2017-12-29T06:55:44.309Z,4.00
2017-12-29T06:56:44.318Z,4.00
2017-12-29T06:57:44.336Z,4.00
2017-12-29T06:58:46.254Z,4.00
2017-12-29T06:59:44.363Z,4.00
2017-12-29T07:00:44.358Z,4.00
2017-12-29T07:01:44.441Z,4.00
2017-12-29T07:02:44.388Z,4.00
2017-12-29T07:03:44.391Z,8.00
2017-12-29T07:04:44.404Z,8.00
2017-12-29T07:05:44.411Z,4.00
2017-12-29T07:06:44.421Z,4.00
2017-12-29T07:07:44.429Z,8.00
2017-12-29T07:08:44.438Z,4.00
2017-12-29T07:09:44.446Z,8.00
2017-12-29T07:10:44.468Z,12.00
2017-12-29T07:11:44.472Z,8.00
2017-12-29T07:12:44.477Z,8.00
2017-12-29T07:13:44.487Z,12.00
2017-12-29T07:14:44.498Z,12.00
2017-12-29T07:15:44.507Z,8.00
2017-12-29T07:16:44.523Z,12.00
2017-12-29T07:17:44.529Z,12.00
2017-12-29T07:18:44.538Z,16.00
2017-12-29T07:19:44.547Z,16.00
2017-12-29T07:20:44.558Z,20.00
2017-12-29T07:21:44.570Z,20.00
2017-12-29T07:22:44.575Z,24.00
2017-12-29T07:23:44.586Z,28.00
2017-12-29T07:24:44.598Z,28.00
2017-12-29T07:25:44.604Z,36.00
2017-12-29T07:26:44.616Z,40.00
2017-12-29T07:27:44.633Z,44.00
2017-12-29T07:28:44.635Z,48.00
2017-12-29T07:29:44.646Z,52.00
2017-12-29T07:30:44.656Z,60.00
2017-12-29T07:31:44.665Z,64.00
2017-12-29T07:32:44.683Z,72.00
2017-12-29T07:33:44.687Z,80.00
2017-12-29T07:34:44.698Z,84.00
2017-12-29T07:35:48.932Z,92.00
2017-12-29T07:36:45.941Z,100.00
2017-12-29T07:37:44.725Z,108.00
2017-12-29T07:38:46.094Z,116.00
2017-12-29T07:39:44.744Z,124.00
2017-12-29T07:40:44.757Z,136.00
2017-12-29T07:41:44.765Z,144.00
2017-12-29T07:42:44.774Z,156.00
2017-12-29T07:43:44.788Z,164.00
2017-12-29T07:44:44.804Z,176.00
2017-12-29T07:45:44.802Z,188.00
2017-12-29T07:46:44.944Z,200.00
2017-12-29T07:47:44.825Z,212.00
2017-12-29T07:48:44.832Z,220.00
2017-12-29T07:49:44.851Z,232.00
2017-12-29T07:50:44.853Z,244.00
2017-12-29T07:51:44.865Z,256.00
2017-12-29T07:52:44.873Z,272.00
2017-12-29T07:53:44.883Z,284.00
2017-12-29T07:54:44.892Z,296.00
2017-12-29T07:55:44.904Z,308.00
2017-12-29T07:56:44.917Z,324.00
2017-12-29T07:57:44.928Z,336.00
2017-12-29T07:58:44.932Z,348.00
2017-12-29T08:00:44.955Z,376.00
2017-12-29T08:01:44.963Z,388.00
2017-12-29T08:02:44.972Z,404.00
2017-12-29T08:03:44.983Z,420.00
2017-12-29T08:04:44.994Z,432.00
2017-12-29T08:05:45.003Z,444.00
2017-12-29T08:06:45.014Z,464.00
2017-12-29T08:07:45.071Z,476.00
2017-12-29T08:08:45.033Z,488.00
2017-12-29T08:09:45.044Z,504.00
2017-12-29T08:10:45.057Z,516.00
2017-12-29T08:11:45.067Z,532.00
2017-12-29T08:12:45.078Z,544.00
2017-12-29T08:13:45.100Z,556.00
2017-12-29T08:14:45.099Z,568.00
2017-12-29T08:15:45.106Z,584.00
2017-12-29T08:16:45.117Z,600.00
2017-12-29T08:17:45.128Z,616.00
2017-12-29T08:18:45.138Z,628.00
2017-12-29T08:19:45.161Z,640.00
2017-12-29T08:20:45.155Z,656.00
2017-12-29T08:21:45.168Z,668.00
2017-12-29T08:22:45.190Z,684.00
2017-12-29T08:23:45.192Z,700.00
2017-12-29T08:24:45.197Z,716.00
2017-12-29T08:25:45.232Z,732.00
2017-12-29T08:26:45.218Z,748.00
2017-12-29T08:27:45.229Z,760.00
2017-12-29T08:28:45.242Z,776.00
2017-12-29T08:29:45.248Z,788.00
2017-12-29T08:30:45.260Z,804.00
2017-12-29T08:31:45.275Z,816.00
2017-12-29T08:32:45.276Z,832.00
2017-12-29T08:33:45.287Z,844.00
2017-12-29T08:34:45.302Z,856.00
2017-12-29T08:35:45.306Z,872.00
2017-12-29T08:36:45.344Z,888.00
2017-12-29T08:37:45.329Z,900.00
2017-12-29T08:38:45.339Z,912.00
2017-12-29T08:39:45.350Z,928.00
2017-12-29T08:40:45.359Z,944.00
2017-12-29T08:41:45.366Z,956.00
2017-12-29T08:42:45.382Z,976.00
2017-12-29T08:43:45.390Z,988.00
2017-12-29T08:44:45.405Z,1004.00
2017-12-29T08:45:45.409Z,1020.00
2017-12-29T08:46:45.424Z,1036.00
2017-12-29T08:47:45.429Z,1052.00
2017-12-29T08:48:45.441Z,1064.00
2017-12-29T08:49:45.455Z,1088.00
2017-12-29T08:50:45.460Z,1104.00
2017-12-29T08:51:45.471Z,1116.00
2017-12-29T08:52:45.484Z,1128.00
2017-12-29T08:53:45.491Z,1140.00
2017-12-29T08:54:45.500Z,1160.00
2017-12-29T08:55:45.512Z,1172.00
2017-12-29T08:56:45.723Z,1184.00
2017-12-29T08:57:45.532Z,1200.00
2017-12-29T08:58:45.542Z,1216.00
2017-12-29T08:59:45.553Z,1236.00
2017-12-29T09:00:45.563Z,1248.00
2017-12-29T09:01:45.572Z,1260.00
2017-12-29T09:02:45.582Z,1276.00
2017-12-29T09:03:45.617Z,1292.00
2017-12-29T09:04:45.605Z,1304.00
2017-12-29T09:05:45.615Z,1312.00
2017-12-29T09:06:45.625Z,1324.00
2017-12-29T09:07:45.635Z,1332.00
2017-12-29T09:08:46.046Z,1344.00
2017-12-29T09:09:45.661Z,1352.00
2017-12-29T09:10:45.665Z,1360.00
2017-12-29T09:11:45.676Z,1372.00
2017-12-29T09:12:45.687Z,1388.00
2017-12-29T09:13:45.696Z,1400.00
2017-12-29T09:14:45.708Z,1408.00
2017-12-29T09:15:45.718Z,1416.00
2017-12-29T09:16:45.930Z,1424.00
2017-12-29T09:17:45.749Z,1444.00
2017-12-29T09:18:46.739Z,1444.00
2017-12-29T09:19:46.677Z,1456.00
2017-12-29T09:20:45.996Z,1464.00
2017-12-29T09:21:45.780Z,1472.00
2017-12-29T09:22:45.790Z,1480.00
2017-12-29T09:23:46.004Z,1480.00
2017-12-29T09:24:45.812Z,1496.00
2017-12-29T09:25:45.822Z,1500.00
2017-12-29T09:26:46.043Z,1512.00
2017-12-29T09:27:45.963Z,1512.00
2017-12-29T09:28:46.072Z,1524.00
2017-12-29T09:29:45.865Z,1532.00
2017-12-29T09:30:45.877Z,1548.00
2017-12-29T09:31:45.887Z,1556.00
2017-12-29T09:32:46.268Z,1560.00
2017-12-29T09:33:45.906Z,1568.00
2017-12-29T09:35:45.926Z,1608.00
2017-12-29T09:36:45.972Z,1628.00
2017-12-29T09:37:45.948Z,1636.00
2017-12-29T09:39:45.970Z,1664.00
2017-12-29T09:40:45.982Z,1680.00
2017-12-29T09:41:45.994Z,1688.00
2017-12-29T09:42:46.007Z,1692.00
2017-12-29T09:43:46.226Z,1700.00
2017-12-29T09:44:46.020Z,1704.00
2017-12-29T09:45:46.030Z,1720.00
2017-12-29T09:46:46.059Z,1724.00
2017-12-29T09:47:46.052Z,1728.00
2017-12-29T09:48:46.057Z,1736.00
2017-12-29T09:49:46.066Z,1732.00
2017-12-29T09:50:46.077Z,1716.00
2017-12-29T09:51:46.087Z,1744.00
2017-12-29T09:52:46.101Z,1752.00
2017-12-29T09:53:46.108Z,1752.00
2017-12-29T09:54:46.117Z,1744.00
2017-12-29T09:55:46.131Z,1756.00
2017-12-29T09:56:46.144Z,1760.00
2017-12-29T09:57:46.150Z,1756.00
2017-12-29T09:58:46.160Z,1752.00
2017-12-29T09:59:46.173Z,1760.00
2017-12-29T10:00:46.186Z,1764.00
2017-12-29T10:01:46.247Z,1768.00
2017-12-29T10:02:46.203Z,1748.00
2017-12-29T10:03:46.214Z,1776.00
2017-12-29T10:04:46.225Z,1768.00
2017-12-29T10:05:46.234Z,1796.00
2017-12-29T10:06:46.246Z,1800.00
2017-12-29T10:07:46.256Z,1796.00
2017-12-29T10:08:46.267Z,1780.00
2017-12-29T10:09:46.277Z,1792.00
2017-12-29T10:10:46.291Z,1792.00
2017-12-29T10:11:46.302Z,1792.00
2017-12-29T10:12:46.309Z,1800.00
2017-12-29T10:13:46.320Z,1796.00
2017-12-29T10:14:46.333Z,1796.00
2017-12-29T10:15:46.342Z,1800.00
2017-12-29T10:16:46.354Z,1800.00
2017-12-29T10:17:46.363Z,1824.00
2017-12-29T10:18:46.378Z,1832.00
2017-12-29T10:19:46.388Z,1848.00
2017-12-29T10:20:46.396Z,1824.00
2017-12-29T10:21:46.407Z,1808.00
2017-12-29T10:22:46.416Z,1812.00
2017-12-29T10:23:46.427Z,1804.00
2017-12-29T10:24:46.439Z,1864.00
2017-12-29T10:25:46.449Z,1892.00
2017-12-29T10:26:46.465Z,1920.00
2017-12-29T10:27:46.471Z,1924.00
2017-12-29T10:28:46.487Z,1912.00
2017-12-29T10:29:46.505Z,1912.00
2017-12-29T10:30:46.504Z,1836.00
2017-12-29T10:31:49.447Z,1924.00
2017-12-29T10:32:46.526Z,1984.00
2017-12-29T10:33:46.536Z,1996.00
2017-12-29T10:35:46.665Z,2028.00
2017-12-29T10:36:46.572Z,2060.00
2017-12-29T10:37:46.580Z,2092.00
2017-12-29T10:38:46.593Z,2112.00
2017-12-29T10:39:46.603Z,2048.00
2017-12-29T10:40:46.613Z,2108.00
2017-12-29T10:41:46.624Z,2032.00
2017-12-29T10:42:46.640Z,2212.00
2017-12-29T10:43:46.646Z,2292.00
2017-12-29T10:44:46.720Z,2316.00
2017-12-29T10:45:46.668Z,2616.00
2017-12-29T10:46:46.679Z,2564.00
2017-12-29T10:47:46.691Z,2480.00
2017-12-29T10:48:46.726Z,2104.00
2017-12-29T10:49:46.713Z,2016.00
2017-12-29T10:50:46.725Z,2112.00
2017-12-29T10:51:46.735Z,2184.00
2017-12-29T10:52:46.837Z,2348.00
2017-12-29T10:53:46.757Z,2676.00
2017-12-29T10:54:46.772Z,2652.00
2017-12-29T10:55:46.781Z,2624.00
2017-12-29T10:56:46.797Z,2048.00
2017-12-29T10:57:46.802Z,1968.00
2017-12-29T10:58:46.813Z,1972.00
2017-12-29T10:59:46.825Z,1936.00
2017-12-29T11:00:46.838Z,1844.00
2017-12-29T11:01:46.848Z,2084.00
2017-12-29T11:02:46.859Z,2272.00
2017-12-29T11:03:46.870Z,2152.00
2017-12-29T11:04:46.882Z,2060.00
2017-12-29T11:05:46.893Z,2112.00
2017-12-29T11:06:46.924Z,2088.00
2017-12-29T11:07:46.918Z,2052.00
2017-12-29T11:08:46.928Z,1932.00
2017-12-29T11:09:46.944Z,1896.00
2017-12-29T11:10:46.951Z,1776.00
2017-12-29T11:11:46.963Z,1796.00
2017-12-29T11:12:46.979Z,1960.00
2017-12-29T11:13:46.984Z,1952.00
2017-12-29T11:14:46.995Z,2068.00
2017-12-29T11:15:47.446Z,2072.00
2017-12-29T11:16:47.020Z,2112.00
2017-12-29T11:17:47.031Z,2296.00
2017-12-29T11:18:47.045Z,2472.00
2017-12-29T11:19:47.059Z,2528.00
2017-12-29T11:20:47.065Z,2584.00
2017-12-29T11:21:47.084Z,2612.00
2017-12-29T11:22:47.090Z,2620.00
2017-12-29T11:23:47.200Z,2664.00
2017-12-29T11:24:47.112Z,2676.00
2017-12-29T11:25:47.122Z,2648.00
2017-12-29T11:26:47.133Z,2628.00
2017-12-29T11:27:47.145Z,2584.00
2017-12-29T11:28:47.163Z,2600.00
2017-12-29T11:29:47.172Z,2656.00
2017-12-29T11:30:47.180Z,2616.00
2017-12-29T11:31:47.203Z,2368.00
2017-12-29T11:32:47.204Z,2476.00
2017-12-29T11:33:47.215Z,2508.00
2017-12-29T11:34:47.227Z,2520.00
2017-12-29T11:35:47.238Z,2536.00
2017-12-29T11:36:47.250Z,2548.00
2017-12-29T11:37:47.262Z,2548.00
2017-12-29T11:38:47.309Z,2512.00
2017-12-29T11:39:47.285Z,2564.00
2017-12-29T11:40:47.295Z,2540.00
2017-12-29T11:41:47.309Z,2524.00
2017-12-29T11:42:47.319Z,2520.00
2017-12-29T11:43:47.344Z,2536.00
2017-12-29T11:44:47.349Z,2540.00
2017-12-29T11:45:47.354Z,2524.00
2017-12-29T11:46:47.366Z,2604.00
2017-12-29T11:47:47.379Z,2700.00
2017-12-29T11:48:47.390Z,2772.00
2017-12-29T11:49:47.401Z,2740.00
2017-12-29T11:50:47.415Z,2708.00
2017-12-29T11:51:47.426Z,2632.00
2017-12-29T11:52:47.443Z,2556.00
2017-12-29T11:53:47.447Z,2536.00
2017-12-29T11:54:47.460Z,2528.00
2017-12-29T11:55:47.472Z,2504.00
2017-12-29T11:56:47.483Z,2472.00
2017-12-29T11:57:47.494Z,2440.00
2017-12-29T11:58:47.506Z,2360.00
2017-12-29T11:59:47.519Z,2340.00
2017-12-29T12:00:47.530Z,2392.00
2017-12-29T12:01:47.541Z,2404.00
2017-12-29T12:02:47.554Z,2372.00
2017-12-29T12:03:47.569Z,2368.00
2017-12-29T12:04:47.579Z,2344.00
2017-12-29T12:05:47.589Z,2336.00
2017-12-29T12:06:47.600Z,2344.00
2017-12-29T12:07:47.612Z,2372.00
2017-12-29T12:08:47.625Z,2404.00
2017-12-29T12:09:47.649Z,2436.00
2017-12-29T12:10:47.988Z,2460.00
2017-12-29T12:11:47.659Z,2472.00
2017-12-29T12:12:47.972Z,2484.00
2017-12-29T12:13:47.684Z,2496.00
2017-12-29T12:14:47.695Z,2512.00
2017-12-29T12:15:47.708Z,2540.00
2017-12-29T12:16:47.719Z,2564.00
2017-12-29T12:17:47.730Z,2608.00
2017-12-29T12:18:47.751Z,2668.00
2017-12-29T12:19:47.755Z,2748.00
2017-12-29T12:20:47.769Z,2796.00
2017-12-29T12:21:47.781Z,2832.00
2017-12-29T12:22:47.799Z,2868.00
2017-12-29T12:23:47.803Z,2932.00
2017-12-29T12:24:47.834Z,2984.00
2017-12-29T12:25:47.825Z,3012.00
2017-12-29T12:26:47.901Z,3032.00
2017-12-29T12:27:47.849Z,3064.00
2017-12-29T12:28:47.862Z,3096.00
2017-12-29T12:29:47.871Z,3120.00
2017-12-29T12:30:47.885Z,3084.00
2017-12-29T12:31:47.900Z,2984.00
2017-12-29T12:32:47.913Z,2796.00
2017-12-29T12:33:47.921Z,2680.00
2017-12-29T12:34:47.937Z,2552.00
2017-12-29T12:35:47.944Z,2488.00
2017-12-29T12:36:49.499Z,2452.00
2017-12-29T12:37:47.971Z,2412.00
2017-12-29T12:38:47.983Z,2252.00
2017-12-29T12:39:47.996Z,2124.00
2017-12-29T12:40:48.208Z,1996.00
2017-12-29T12:41:48.019Z,1920.00
2017-12-29T12:42:48.030Z,1856.00
2017-12-29T12:43:48.041Z,1776.00
2017-12-29T12:44:48.054Z,1708.00
2017-12-29T12:45:48.065Z,1652.00
2017-12-29T12:46:48.077Z,1612.00
2017-12-29T12:47:48.094Z,1604.00
2017-12-29T12:48:48.101Z,1592.00
2017-12-29T12:49:48.113Z,1592.00
2017-12-29T12:50:48.125Z,1600.00
2017-12-29T12:51:48.147Z,1624.00
2017-12-29T12:52:48.149Z,1656.00
2017-12-29T12:53:48.161Z,1676.00